Time;durP1;ratioP1;P1;durP2;ratioP2;P2;SDS_P1;SDS_P2;PMS_P1;PMS_P2;Temp;Humidity;BMP_temperature;BMP_pressure;BME280_temperature;BME280_humidity;BME280_pressure;Samples;Min_cycle;Max_cycle;Signal;HPM_P1;HPM_P2
2022/09/21 00:01:33;;;;;;;2.03;1.60;;;;;;;31.18;19.15;100523.53;5025485;28;20127;-73
2022/09/21 00:04:05;;;;;;;2.88;1.60;;;;;;;31.16;17.45;100517.41;5019709;28;20422;-73
2022/09/21 00:06:34;;;;;;;2.60;1.70;;;;;;;31.17;17.93;100517.28;5018461;28;20054;-74
2022/09/21 00:09:04;;;;;;;2.20;1.70;;;;;;;31.20;17.52;100521.59;5018537;28;20072;-74
2022/09/21 00:11:34;;;;;;;3.63;1.75;;;;;;;31.22;17.54;100522.38;5017214;28;20418;-76
2022/09/21 00:14:06;;;;;;;6.20;1.63;;;;;;;31.21;17.08;100520.66;5019388;28;20046;-75
2022/09/21 00:16:34;;;;;;;;;;;;;;;31.22;16.82;100517.91;5021522;28;20065;-75
2022/09/21 00:19:05;;;;;;;3.25;2.00;;;;;;;31.23;17.72;100518.75;5022802;28;19925;-73
2022/09/21 00:21:35;;;;;;;11.35;2.05;;;;;;;31.23;18.52;100521.44;5013832;28;20470;-74
2022/09/21 00:24:04;;;;;;;3.72;1.80;;;;;;;31.19;18.33;100511.88;5015776;28;20049;-72
2022/09/21 00:26:33;;;;;;;3.53;1.70;;;;;;;31.14;19.71;100508.63;5013778;28;20104;-74
2022/09/21 00:29:03;;;;;;;4.10;1.50;;;;;;;31.01;18.85;100506.66;5023426;28;20131;-76
2022/09/21 00:31:32;;;;;;;2.80;1.75;;;;;;;30.90;19.34;100511.78;5024523;28;20403;-75
2022/09/21 00:34:06;;;;;;;3.92;1.83;;;;;;;30.81;19.59;100509.63;5026546;28;20100;-75
2022/09/21 00:36:35;;;;;;;2.72;1.55;;;;;;;30.74;19.19;100506.50;5026407;28;20128;-73
2022/09/21 00:39:04;;;;;;;2.85;2.00;;;;;;;30.59;20.04;100496.69;5022851;28;20120;-79
2022/09/21 00:41:34;;;;;;;3.60;2.03;;;;;;;30.57;18.60;100510.13;5026680;28;20518;-81
2022/09/21 00:44:25;;;;;;;2.95;1.90;;;;;;;30.51;19.94;100510.47;5008337;28;20421;-74
2022/09/21 00:46:56;;;;;;;3.92;1.88;;;;;;;30.45;19.72;100517.03;4997726;28;20061;-75
2022/09/21 00:49:28;;;;;;;3.80;1.77;;;;;;;30.38;19.25;100514.81;5005123;28;20049;-77
2022/09/21 00:52:00;;;;;;;3.22;1.95;;;;;;;30.31;18.70;100513.44;5006700;28;20057;-76
2022/09/21 00:54:33;;;;;;;4.28;1.73;;;;;;;30.23;20.78;100517.34;5001404;28;20078;-75
2022/09/21 00:57:03;;;;;;;2.28;1.30;;;;;;;30.14;21.32;100522.34;5003517;28;20046;-75
2022/09/21 00:59:34;;;;;;;3.25;1.70;;;;;;;30.03;21.29;100512.28;5005101;28;20046;-75
2022/09/21 01:02:03;;;;;;;3.45;1.55;;;;;;;29.94;19.98;100519.00;5006721;28;20041;-76
2022/09/21 01:04:35;;;;;;;6.90;2.00;;;;;;;29.84;20.00;100515.94;5004156;28;20073;-76
2022/09/21 01:07:11;;;;;;;4.50;2.10;;;;;;;29.74;19.69;100514.75;5011444;28;20423;-73
2022/09/21 01:09:40;;;;;;;4.95;1.88;;;;;;;29.66;19.23;100511.59;5010960;28;20412;-73
2022/09/21 01:12:25;;;;;;;4.25;2.15;;;;;;;29.59;18.18;100515.53;5014811;28;20046;-76
2022/09/21 01:15:06;;;;;;;4.93;1.88;;;;;;;29.49;18.76;100515.19;5006078;28;20156;-76
2022/09/21 01:17:42;;;;;;;3.35;1.80;;;;;;;29.41;18.99;100507.59;5012924;28;20054;-77
2022/09/21 01:20:46;;;;;;;3.78;1.65;;;;;;;29.36;21.86;100516.75;4999825;28;20515;-80
2022/09/21 01:23:37;;;;;;;1.73;1.63;;;;;;;29.20;22.06;100508.69;5013712;28;20045;-77
2022/09/21 01:26:15;;;;;;;2.90;1.70;;;;;;;29.20;22.34;100512.22;5003987;28;20042;-74
2022/09/21 01:29:11;;;;;;;5.78;2.03;;;;;;;29.12;22.79;100513.59;4999123;28;20499;-74
2022/09/21 01:31:45;;;;;;;5.13;1.90;;;;;;;29.00;22.77;100509.69;5003201;28;20132;-75
2022/09/21 01:34:21;;;;;;;5.15;2.85;;;;;;;28.89;22.07;100515.59;5002365;28;20061;-78
2022/09/21 01:36:54;;;;;;;2.78;2.17;;;;;;;28.78;23.50;100516.13;4999319;28;20046;-77
2022/09/21 01:39:24;;;;;;;2.83;2.22;;;;;;;28.67;23.61;100525.59;5002906;28;20518;-75
2022/09/21 01:41:55;;;;;;;4.93;2.58;;;;;;;28.54;23.59;100520.00;5000098;28;20471;-75
2022/09/21 01:44:35;;;;;;;3.15;2.72;;;;;;;28.39;23.42;100514.47;5022733;28;20085;-76
2022/09/21 01:47:07;;;;;;;6.95;2.45;;;;;;;28.30;23.77;100517.56;5028288;28;20447;-75
2022/09/21 01:49:41;;;;;;;2.95;2.25;;;;;;;28.20;24.40;100508.31;5026029;28;20498;-74
2022/09/21 01:52:15;;;;;;;4.88;3.00;;;;;;;28.09;24.15;100514.13;5024709;28;20049;-74
2022/09/21 01:54:48;;;;;;;3.67;2.60;;;;;;;27.97;24.16;100512.91;5022282;28;20561;-74
2022/09/21 01:57:24;;;;;;;4.22;2.30;;;;;;;27.81;24.71;100503.91;5025079;28;20491;-74
2022/09/21 01:59:57;;;;;;;5.18;2.30;;;;;;;27.72;24.29;100521.13;5026263;28;20450;-75
2022/09/21 02:02:31;;;;;;;4.57;2.20;;;;;;;27.60;23.72;100518.16;5025831;28;20467;-75
2022/09/21 02:05:03;;;;;;;3.47;1.92;;;;;;;27.46;24.14;100518.78;5024308;28;20049;-74
2022/09/21 02:07:33;;;;;;;8.93;2.97;;;;;;;27.30;25.10;100511.47;5025123;28;20046;-75
2022/09/21 02:10:02;;;;;;;3.53;2.42;;;;;;;27.20;24.96;100527.88;5028201;28;20045;-73
2022/09/21 02:12:32;;;;;;;4.25;2.20;;;;;;;27.04;25.78;100517.03;5023165;28;20137;-73
2022/09/21 02:15:03;;;;;;;2.80;2.03;;;;;;;26.92;26.17;100523.75;5022825;28;20124;-73
2022/09/21 02:17:45;;;;;;;4.07;2.38;;;;;;;26.74;27.01;100515.59;5024790;28;20041;-74
2022/09/21 02:20:20;;;;;;;5.90;2.38;;;;;;;26.59;25.88;100520.69;5029382;28;20411;-73
2022/09/21 02:23:02;;;;;;;7.25;3.13;;;;;;;26.44;25.81;100527.44;5029342;28;20053;-73
2022/09/21 02:25:40;;;;;;;6.40;2.83;;;;;;;26.29;25.98;100519.16;5022677;28;20061;-73
2022/09/21 02:28:14;;;;;;;4.25;2.38;;;;;;;26.12;28.11;100527.78;5026602;28;20089;-73
2022/09/21 02:30:54;;;;;;;3.17;2.13;;;;;;;25.96;29.89;100537.25;5025100;28;20046;-74
2022/09/21 02:33:31;;;;;;;5.45;2.30;;;;;;;25.78;30.16;100533.47;5021888;28;20676;-73
2022/09/21 02:36:07;;;;;;;5.68;2.55;;;;;;;25.66;30.80;100533.94;5026219;28;20048;-74
2022/09/21 02:38:40;;;;;;;5.22;2.40;;;;;;;25.54;30.67;100537.00;5022816;28;20046;-75
2022/09/21 02:41:16;;;;;;;3.67;2.38;;;;;;;25.39;30.58;100541.06;5023681;28;20037;-72
2022/09/21 02:43:50;;;;;;;4.07;2.20;;;;;;;25.21;32.35;100548.72;5022404;28;20050;-73
2022/09/21 02:46:26;;;;;;;4.50;2.20;;;;;;;25.05;34.22;100552.78;5021992;28;20711;-73
2022/09/21 02:48:58;;;;;;;6.22;2.30;;;;;;;24.91;34.44;100545.31;5027700;28;20499;-73
2022/09/21 02:51:28;;;;;;;;;;;;;;;24.78;33.62;100550.13;5021696;28;20071;-73
2022/09/21 02:53:59;;;;;;;3.78;2.33;;;;;;;24.64;33.26;100553.22;5027783;28;19925;-75
2022/09/21 02:56:29;;;;;;;6.65;2.25;;;;;;;24.53;33.46;100565.94;5019602;28;20061;-72
2022/09/21 02:59:00;;;;;;;3.95;2.10;;;;;;;24.35;33.39;100564.72;5019862;28;20050;-74
2022/09/21 03:01:31;;;;;;;4.25;2.17;;;;;;;24.24;33.23;100577.38;5020471;28;20045;-71
2022/09/21 03:04:00;;;;;;;3.15;2.00;;;;;;;24.14;33.80;100573.28;5018947;28;20512;-73
2022/09/21 03:06:30;;;;;;;3.58;2.00;;;;;;;24.05;34.93;100590.25;5024344;28;20050;-72
2022/09/21 03:08:59;;;;;;;3.67;2.20;;;;;;;23.97;36.10;100590.50;5017524;28;20085;-72
2022/09/21 03:11:28;;;;;;;6.05;2.05;;;;;;;23.90;36.69;100602.16;5027241;28;20450;-72
2022/09/21 03:13:56;;;;;;;2.88;2.13;;;;;;;23.79;37.15;100601.56;5021534;28;20549;-72
2022/09/21 03:16:25;;;;;;;3.85;2.08;;;;;;;23.75;36.39;100614.00;5018334;28;20042;-72
2022/09/21 03:18:55;;;;;;;5.07;2.00;;;;;;;23.63;38.24;100616.94;5025548;28;20072;-73
2022/09/21 03:21:24;;;;;;;5.13;2.15;;;;;;;23.46;38.58;100627.97;5019377;28;20608;-73
2022/09/21 03:23:52;;;;;;;3.50;2.05;;;;;;;23.20;37.36;100636.53;5020708;28;20037;-72
2022/09/21 03:26:21;;;;;;;6.82;2.00;;;;;;;22.92;36.97;100636.28;5027675;28;20076;-72
2022/09/21 03:28:50;;;;;;;5.45;2.15;;;;;;;22.80;37.15;100648.88;5025307;28;20948;-73
2022/09/21 03:31:19;;;;;;;3.95;2.28;;;;;;;22.76;36.08;100651.59;5025972;28;20134;-72
2022/09/21 03:33:48;;;;;;;5.00;2.03;;;;;;;22.74;36.37;100669.22;5024116;28;20054;-73
2022/09/21 03:36:18;;;;;;;6.57;2.38;;;;;;;22.69;37.10;100671.09;5019768;28;20049;-73
2022/09/21 03:38:47;;;;;;;7.55;2.45;;;;;;;22.65;36.40;100672.94;5018620;28;20578;-73
2022/09/21 03:41:15;;;;;;;6.70;2.97;;;;;;;22.61;37.18;100668.66;5018464;28;20041;-73
2022/09/21 03:43:44;;;;;;;7.65;2.95;;;;;;;22.57;37.23;100677.53;5023252;28;20049;-73
2022/09/21 03:46:13;;;;;;;4.85;3.08;;;;;;;22.52;39.17;100690.81;5020634;28;20057;-72
2022/09/21 03:48:41;;;;;;;8.10;3.25;;;;;;;22.52;38.55;100695.22;5024025;28;20049;-72
2022/09/21 03:51:10;;;;;;;12.32;3.25;;;;;;;22.49;38.62;100700.53;5022363;28;20045;-72
2022/09/21 03:53:40;;;;;;;6.68;3.10;;;;;;;22.47;39.06;100697.06;5024423;28;20127;-73
2022/09/21 03:56:09;;;;;;;8.65;3.80;;;;;;;22.45;40.05;100694.47;5024801;28;20160;-73
2022/09/21 03:58:37;;;;;;;5.63;3.28;;;;;;;22.44;39.96;100703.25;5023830;28;20073;-71
2022/09/21 04:01:06;;;;;;;11.95;3.70;;;;;;;22.42;40.85;100710.34;5019454;28;20041;-75
2022/09/21 04:03:35;;;;;;;10.93;3.58;;;;;;;22.41;42.05;100715.66;5024139;28;20060;-74
2022/09/21 04:06:10;;;;;;;9.05;3.85;;;;;;;22.38;42.46;100714.81;5028963;28;20467;-74
2022/09/21 04:08:41;;;;;;;11.02;3.80;;;;;;;22.37;43.07;100718.34;5028183;28;20049;-74
2022/09/21 04:11:11;;;;;;;11.95;3.65;;;;;;;22.37;43.48;100725.38;5027728;28;20046;-74
2022/09/21 04:13:41;;;;;;;11.32;4.05;;;;;;;22.34;43.25;100713.13;5023482;28;20057;-74
2022/09/21 04:16:10;;;;;;;8.98;3.45;;;;;;;22.32;43.60;100720.19;5023745;28;20052;-72
2022/09/21 04:18:39;;;;;;;8.38;3.72;;;;;;;22.29;43.59;100722.91;5028442;28;20125;-74
2022/09/21 04:21:08;;;;;;;6.32;3.65;;;;;;;22.26;44.06;100722.94;5031966;28;20049;-73
2022/09/21 04:23:36;;;;;;;9.00;3.40;;;;;;;22.24;43.79;100719.50;5029118;28;20048;-75
2022/09/21 04:26:07;;;;;;;8.13;3.83;;;;;;;22.17;44.11;100716.06;5029857;28;20053;-75
2022/09/21 04:28:35;;;;;;;10.75;3.88;;;;;;;22.14;44.22;100715.25;5023846;28;20057;-75
2022/09/21 04:31:04;;;;;;;9.98;3.47;;;;;;;22.08;44.17;100723.25;5021822;28;20060;-76
2022/09/21 04:33:33;;;;;;;9.30;4.35;;;;;;;22.01;44.31;100719.88;5017352;28;20530;-74
2022/09/21 04:36:01;;;;;;;9.23;3.58;;;;;;;21.96;44.31;100716.47;5021163;28;20051;-75
2022/09/21 04:38:32;;;;;;;13.82;4.22;;;;;;;21.89;44.65;100718.31;5023290;28;20132;-74
2022/09/21 04:41:02;;;;;;;10.88;3.80;;;;;;;21.86;45.05;100714.91;5024159;28;20052;-73
2022/09/21 04:43:32;;;;;;;10.98;3.88;;;;;;;21.83;45.00;100710.56;5027370;28;20061;-73
2022/09/21 04:46:06;;;;;;;8.07;4.07;;;;;;;21.79;44.77;100708.88;5026373;28;20049;-72
2022/09/21 04:48:35;;;;;;;12.77;4.10;;;;;;;21.78;45.05;100720.28;5027223;28;20495;-72
2022/09/21 04:51:05;;;;;;;9.75;3.30;;;;;;;21.68;46.16;100722.22;5036979;28;20060;-74
2022/09/21 04:53:34;;;;;;;8.35;3.70;;;;;;;21.46;46.90;100720.81;5027979;28;20057;-74
2022/09/21 04:56:02;;;;;;;6.88;3.53;;;;;;;21.38;46.77;100731.44;5030543;28;20135;-73
2022/09/21 04:58:39;;;;;;;8.77;3.40;;;;;;;21.30;47.03;100735.94;5031311;28;20049;-74
2022/09/21 05:01:08;;;;;;;8.23;3.60;;;;;;;21.17;47.55;100722.13;5029387;28;20498;-73
2022/09/21 05:03:37;;;;;;;6.40;3.53;;;;;;;21.05;48.91;100736.31;5026163;28;20148;-72
2022/09/21 05:06:06;;;;;;;9.48;4.18;;;;;;;20.85;48.67;100738.34;5022797;28;20475;-74
2022/09/21 05:11:26;;;;;;;12.45;4.00;;;;;;;20.71;48.93;100747.28;4974031;28;20049;-75
2022/09/21 05:13:57;;;;;;;5.72;3.47;;;;;;;20.68;49.01;100751.69;5026731;28;20399;-74
2022/09/21 05:16:25;;;;;;;9.85;3.53;;;;;;;20.68;49.74;100751.69;5021991;28;20053;-73
2022/09/21 05:18:55;;;;;;;9.73;4.00;;;;;;;20.65;49.56;100749.97;5025525;28;20507;-73
2022/09/21 05:21:24;;;;;;;8.07;3.72;;;;;;;20.63;49.51;100754.38;5027510;28;20538;-74
2022/09/21 05:23:53;;;;;;;10.02;4.07;;;;;;;20.57;49.95;100748.31;5020682;28;20045;-74
2022/09/21 05:26:21;;;;;;;9.25;4.70;;;;;;;20.47;50.09;100748.41;5024802;28;20509;-76
2022/09/21 05:28:51;;;;;;;9.70;4.07;;;;;;;20.40;50.08;100751.13;5026074;28;20057;-74
2022/09/21 05:31:36;;;;;;;8.80;4.22;;;;;;;20.33;50.41;100757.34;5021821;28;20499;-71
2022/09/21 05:34:12;;;;;;;10.05;4.00;;;;;;;20.22;50.53;100753.03;5022452;28;20410;-69
2022/09/21 05:36:50;;;;;;;10.50;4.22;;;;;;;20.17;50.79;100761.88;5025004;28;20407;-69
2022/09/21 05:39:20;;;;;;;10.57;4.63;;;;;;;20.12;51.23;100761.94;5023988;28;20056;-69
2022/09/21 05:41:49;;;;;;;8.45;4.43;;;;;;;20.08;51.12;100754.94;5025467;28;20045;-69
2022/09/21 05:44:20;;;;;;;10.23;4.68;;;;;;;20.05;51.43;100766.34;5018297;28;20507;-69
2022/09/21 05:46:56;;;;;;;8.15;4.88;;;;;;;20.00;52.04;100768.16;5018480;28;20139;-69
2022/09/21 05:49:35;;;;;;;7.80;5.07;;;;;;;19.94;51.77;100757.72;5022166;28;20045;-69
2022/09/21 05:52:10;;;;;;;18.73;5.68;;;;;;;19.88;52.59;100757.75;5027243;28;20045;-70
2022/09/21 05:54:50;;;;;;;9.23;5.07;;;;;;;19.82;52.90;100752.56;5027778;28;20202;-70
2022/09/21 05:57:25;;;;;;;13.00;5.55;;;;;;;19.74;53.58;100750.00;5031363;28;20139;-70
2022/09/21 06:00:03;;;;;;;13.77;6.70;;;;;;;19.69;53.10;100746.53;5022405;28;20491;-69
2022/09/21 06:02:58;;;;;;;12.90;6.93;;;;;;;19.63;53.64;100751.81;5025263;28;20059;-69
2022/09/21 06:05:27;;;;;;;14.40;6.78;;;;;;;19.53;53.96;100740.50;5024049;28;20494;-69
2022/09/21 06:07:56;;;;;;;11.07;6.38;;;;;;;19.51;54.04;100744.03;5028632;28;20637;-69
2022/09/21 06:10:24;;;;;;;14.25;6.63;;;;;;;19.47;54.43;100743.19;5028419;28;20048;-70
2022/09/21 06:12:53;;;;;;;13.73;7.28;;;;;;;19.40;54.56;100745.00;5019450;28;20041;-70
2022/09/21 06:15:21;;;;;;;11.73;6.07;;;;;;;19.37;54.54;100749.38;5021119;28;20053;-70
2022/09/21 06:17:52;;;;;;;14.68;6.60;;;;;;;19.32;54.88;100746.78;5023720;28;20053;-69
2022/09/21 06:20:21;;;;;;;13.80;6.97;;;;;;;19.27;55.27;100739.84;5025981;28;20049;-69
2022/09/21 06:22:50;;;;;;;12.40;5.90;;;;;;;19.23;55.21;100737.22;5027583;28;20626;-70
2022/09/21 06:25:19;;;;;;;11.52;5.78;;;;;;;19.19;55.52;100743.34;5026760;28;20835;-69
2022/09/21 06:27:47;;;;;;;9.43;5.70;;;;;;;19.12;55.41;100733.78;5024176;28;20085;-68
2022/09/21 06:30:16;;;;;;;17.08;5.88;;;;;;;19.08;56.27;100739.97;5025216;28;20059;-68
2022/09/21 06:32:44;;;;;;;10.07;5.63;;;;;;;18.92;57.26;100739.16;5025306;28;20049;-67
2022/09/21 06:35:15;;;;;;;12.52;6.28;;;;;;;18.86;57.66;100733.94;5026440;28;20096;-67
2022/09/21 06:37:43;;;;;;;12.75;5.32;;;;;;;18.82;57.67;100727.81;5027051;28;20053;-69
2022/09/21 06:40:12;;;;;;;10.90;5.65;;;;;;;18.79;57.92;100722.63;5024254;28;20559;-68
2022/09/21 06:42:41;;;;;;;11.27;4.95;;;;;;;18.77;57.30;100723.50;5022146;28;20046;-68
2022/09/21 06:45:10;;;;;;;14.05;6.93;;;;;;;18.74;57.83;100720.88;5023816;28;20069;-70
2022/09/21 06:47:39;;;;;;;10.43;5.47;;;;;;;18.71;57.72;100728.72;5025281;28;20053;-67
2022/09/21 06:50:09;;;;;;;12.70;5.60;;;;;;;18.68;57.95;100720.88;5025952;28;20045;-69
2022/09/21 06:52:40;;;;;;;9.35;5.05;;;;;;;18.61;57.71;100723.53;5025786;28;20530;-66
2022/09/21 06:55:10;;;;;;;9.57;5.03;;;;;;;18.53;58.31;100720.09;5020167;28;20493;-67
2022/09/21 06:57:39;;;;;;;11.10;4.93;;;;;;;18.47;58.86;100717.47;5027487;28;20930;-68
2022/09/21 07:00:09;;;;;;;12.50;4.55;;;;;;;18.45;58.41;100721.84;5024393;28;20510;-67
2022/09/21 07:02:38;;;;;;;13.05;4.45;;;;;;;18.37;58.69;100719.25;5020147;28;20054;-69
2022/09/21 07:05:08;;;;;;;15.80;5.10;;;;;;;18.33;58.00;100727.13;5026558;28;20579;-69
2022/09/21 07:07:39;;;;;;;11.95;4.60;;;;;;;18.30;59.07;100721.88;5018013;28;20545;-68
2022/09/21 07:10:09;;;;;;;8.80;4.68;;;;;;;18.27;58.33;100732.38;5029744;28;20056;-69
2022/09/21 07:12:37;;;;;;;9.13;4.75;;;;;;;18.23;57.91;100725.41;5020300;28;20939;-70
2022/09/21 07:15:08;;;;;;;8.73;5.43;;;;;;;18.19;58.19;100728.03;5022567;28;20410;-69
2022/09/21 07:17:38;;;;;;;13.10;5.30;;;;;;;18.15;58.29;100728.91;5021530;28;20132;-69
2022/09/21 07:20:08;;;;;;;12.23;5.78;;;;;;;18.11;59.00;100728.91;5023068;28;20054;-69
2022/09/21 07:22:39;;;;;;;11.90;5.60;;;;;;;18.06;58.96;100726.31;5021729;28;20054;-70
2022/09/21 07:25:09;;;;;;;10.80;4.78;;;;;;;18.00;59.70;100726.31;5018129;28;20052;-69
2022/09/21 07:27:38;;;;;;;17.70;5.78;;;;;;;17.97;59.60;100731.56;5017712;28;20151;-68
2022/09/21 07:30:08;;;;;;;12.15;5.70;;;;;;;17.89;60.40;100728.06;5024523;28;20049;-70
2022/09/21 07:32:37;;;;;;;10.85;5.32;;;;;;;17.84;60.17;100724.59;5024619;28;20054;-69
2022/09/21 07:35:07;;;;;;;12.30;5.35;;;;;;;17.78;60.29;100728.94;5019523;28;20569;-69
2022/09/21 07:37:42;;;;;;;10.02;5.35;;;;;;;17.73;60.92;100738.53;5017702;28;20049;-69
2022/09/21 07:40:13;;;;;;;9.45;5.10;;;;;;;17.65;59.95;100728.94;5021381;28;20067;-69
2022/09/21 07:42:43;;;;;;;12.52;4.00;;;;;;;17.63;60.44;100726.31;5019409;28;20115;-69
2022/09/21 07:45:13;;;;;;;7.05;3.72;;;;;;;17.57;60.17;100726.31;5023858;28;20061;-69
2022/09/21 07:47:41;;;;;;;11.00;3.58;;;;;;;17.52;59.62;100725.44;5020065;28;20180;-69
2022/09/21 07:50:11;;;;;;;12.35;4.20;;;;;;;17.45;59.90;100726.31;5021578;28;20049;-70
2022/09/21 07:52:40;;;;;;;8.73;4.60;;;;;;;17.37;60.08;100718.47;5020859;28;20084;-68
2022/09/21 07:55:09;;;;;;;13.55;4.55;;;;;;;17.27;61.06;100728.03;5022326;28;20057;-68
2022/09/21 08:00:27;;;;;;;7.38;4.50;;;;;;;17.16;62.91;100741.09;5022528;28;20549;-69
2022/09/21 08:02:56;;;;;;;11.80;4.30;;;;;;;17.15;62.66;100738.47;5021098;28;20053;-70
2022/09/21 08:05:25;;;;;;;7.07;3.65;;;;;;;17.11;63.01;100741.94;5018735;28;20050;-69
2022/09/21 08:07:56;;;;;;;5.07;3.67;;;;;;;17.08;62.70;100736.69;5016565;28;20049;-69
2022/09/21 08:10:27;;;;;;;10.55;5.07;;;;;;;17.03;63.32;100738.44;5024327;28;20132;-69
2022/09/21 08:12:58;;;;;;;9.43;4.22;;;;;;;17.00;62.86;100748.91;5020544;28;20060;-69
2022/09/21 08:15:27;;;;;;;10.13;5.05;;;;;;;16.93;63.09;100742.78;5023402;28;20451;-69
2022/09/21 08:17:57;;;;;;;9.32;4.15;;;;;;;16.89;62.29;100752.34;5019307;28;20050;-69
2022/09/21 08:20:26;;;;;;;7.28;3.70;;;;;;;16.85;62.01;100747.09;5024432;28;20166;-69
2022/09/21 08:22:57;;;;;;;7.38;4.10;;;;;;;16.79;62.78;100750.56;5022314;28;20041;-68
2022/09/21 08:25:26;;;;;;;8.98;4.15;;;;;;;16.69;63.88;100749.59;5024737;28;20755;-69
2022/09/21 08:28:00;;;;;;;8.93;4.30;;;;;;;16.61;64.45;100750.47;5020669;28;20402;-68
2022/09/21 08:30:30;;;;;;;10.88;4.10;;;;;;;16.55;65.78;100751.28;5022218;28;20380;-68
2022/09/21 08:32:59;;;;;;;8.77;4.78;;;;;;;16.46;65.83;100756.47;5018386;28;20049;-69
2022/09/21 08:35:28;;;;;;;7.00;4.05;;;;;;;16.43;65.13;100762.53;5026706;28;20049;-68
2022/09/21 08:37:57;;;;;;;8.48;3.75;;;;;;;16.43;65.25;100773.00;5021040;28;20615;-68
2022/09/21 08:40:25;;;;;;;7.93;4.03;;;;;;;16.40;65.53;100778.22;5024639;28;20566;-67
2022/09/21 08:43:01;;;;;;;9.25;4.30;;;;;;;16.37;65.98;100775.56;5021910;28;20593;-68
2022/09/21 08:45:34;;;;;;;8.18;4.22;;;;;;;16.34;65.69;100767.72;5027196;28;20056;-69
2022/09/21 08:48:06;;;;;;;8.25;4.25;;;;;;;16.30;65.79;100765.94;5028537;28;20132;-69
2022/09/21 08:50:36;;;;;;;;;;;;;;;16.28;66.19;100765.06;5033895;28;20045;-69
2022/09/21 08:53:10;;;;;;;7.40;4.35;;;;;;;16.27;66.31;100765.94;5026358;28;19921;-68
2022/09/21 08:55:39;;;;;;;14.27;4.47;;;;;;;16.25;65.91;100772.88;5019579;28;20922;-68
2022/09/21 08:58:22;;;;;;;12.23;3.97;;;;;;;16.20;66.88;100775.47;5021372;28;20494;-68
2022/09/21 09:01:00;;;;;;;10.00;4.13;;;;;;;16.16;66.46;100767.59;5013530;28;20660;-69
2022/09/21 09:03:47;;;;;;;10.77;4.70;;;;;;;16.11;66.66;100765.81;5021552;28;20056;-69
2022/09/21 09:06:26;;;;;;;10.23;3.95;;;;;;;16.07;66.84;100758.81;5028251;28;20050;-68
2022/09/21 09:09:19;;;;;;;11.40;3.97;;;;;;;16.04;67.27;100756.22;5028711;28;20068;-69
2022/09/21 09:12:06;;;;;;;6.05;3.80;;;;;;;16.02;67.08;100754.44;5031510;28;20053;-69
2022/09/21 09:15:00;;;;;;;9.40;3.80;;;;;;;15.98;66.87;100758.75;5027011;28;20127;-69
2022/09/21 09:17:45;;;;;;;8.05;4.40;;;;;;;15.97;67.36;100761.38;5025850;28;20095;-69
2022/09/21 09:20:18;;;;;;;8.27;3.90;;;;;;;15.95;67.11;100758.75;5023807;28;20459;-69
2022/09/21 09:22:51;;;;;;;7.50;3.72;;;;;;;15.93;66.01;100759.59;5017550;28;20078;-69
2022/09/21 09:25:23;;;;;;;11.88;3.85;;;;;;;15.83;67.87;100758.66;5021772;28;20632;-69
2022/09/21 09:27:55;;;;;;;6.30;3.63;;;;;;;15.77;68.26;100763.81;5025651;28;20500;-68
2022/09/21 09:30:26;;;;;;;7.70;4.27;;;;;;;15.75;68.34;100755.09;5023919;28;20046;-68
2022/09/21 09:33:00;;;;;;;8.10;4.05;;;;;;;15.76;68.30;100757.75;5020451;28;20517;-69
2022/09/21 09:35:32;;;;;;;10.02;4.13;;;;;;;15.74;67.66;100756.84;5019327;28;20057;-68
2022/09/21 09:38:10;;;;;;;7.18;4.05;;;;;;;15.70;67.21;100758.53;5020602;28;20058;-69
2022/09/21 09:40:58;;;;;;;10.77;3.95;;;;;;;15.67;68.49;100747.19;5020287;28;20083;-69
2022/09/21 09:43:46;;;;;;;12.35;4.20;;;;;;;15.61;68.47;100748.00;5027975;28;20053;-70
2022/09/21 09:46:23;;;;;;;7.25;4.13;;;;;;;15.60;68.56;100750.59;5000977;28;20085;-69
2022/09/21 09:49:11;;;;;;;7.63;4.25;;;;;;;15.56;68.62;100761.88;5008298;28;20045;-69
2022/09/21 09:51:41;;;;;;;7.68;3.85;;;;;;;15.49;69.02;100758.34;5003937;28;20055;-68
2022/09/21 09:54:15;;;;;;;7.95;3.92;;;;;;;15.45;69.29;100762.63;5004503;28;20123;-69
2022/09/21 09:56:44;;;;;;;11.88;4.20;;;;;;;15.44;68.34;100760.91;5009092;28;20255;-68
2022/09/21 09:59:20;;;;;;;9.18;3.97;;;;;;;15.42;69.12;100761.75;5002763;28;20112;-69
2022/09/21 10:02:02;;;;;;;9.32;4.22;;;;;;;15.39;69.42;100753.88;4996296;28;20158;-69
2022/09/21 10:04:31;;;;;;;8.90;4.80;;;;;;;15.36;69.89;100751.25;5005167;28;21031;-69
2022/09/21 10:06:59;;;;;;;8.23;4.15;;;;;;;15.31;70.12;100752.94;4995080;28;20049;-69
2022/09/21 10:09:29;;;;;;;10.32;4.13;;;;;;;15.27;69.93;100752.03;5005978;28;20496;-69
2022/09/21 10:12:01;;;;;;;6.68;3.80;;;;;;;15.22;70.25;100753.72;4995107;28;20047;-69
2022/09/21 10:14:35;;;;;;;11.27;4.40;;;;;;;15.19;70.21;100751.94;4999608;28;20041;-69
2022/09/21 10:17:08;;;;;;;15.75;4.47;;;;;;;15.15;69.97;100750.16;5002134;28;20046;-68
2022/09/21 10:19:37;;;;;;;9.70;4.78;;;;;;;15.11;70.24;100744.91;4994308;28;20050;-69
2022/09/21 10:22:06;;;;;;;9.55;4.28;;;;;;;15.06;70.23;100740.50;4999035;28;20788;-68
2022/09/21 10:24:39;;;;;;;8.02;4.90;;;;;;;14.97;71.25;100753.44;5012261;28;20046;-67
2022/09/21 10:27:13;;;;;;;6.70;4.15;;;;;;;14.79;73.57;100751.47;5011561;28;20202;-68
2022/09/21 10:29:44;;;;;;;6.82;3.70;;;;;;;14.63;73.62;100754.75;5006219;28;20050;-68
2022/09/21 10:32:23;;;;;;;11.85;4.15;;;;;;;14.55;73.16;100754.66;5002711;28;20046;-68
2022/09/21 10:35:14;;;;;;;12.23;4.18;;;;;;;14.52;74.31;100764.13;5002867;28;20046;-67
2022/09/21 10:37:43;;;;;;;10.23;4.43;;;;;;;14.41;74.20;100759.66;4996949;28;20506;-68
2022/09/21 10:40:27;;;;;;;8.95;3.80;;;;;;;14.40;73.18;100757.88;4992362;28;20050;-69
2022/09/21 10:42:57;;;;;;;10.13;4.05;;;;;;;14.42;72.83;100764.00;5003281;28;20083;-68
2022/09/21 10:45:28;;;;;;;7.07;4.13;;;;;;;14.42;73.03;100761.38;5020349;28;20248;-69
2022/09/21 10:48:00;;;;;;;9.20;3.75;;;;;;;14.42;72.62;100769.19;5020676;28;20060;-69
2022/09/21 10:50:31;;;;;;;15.83;4.07;;;;;;;14.41;73.01;100761.41;5020491;28;20067;-68
2022/09/21 10:53:03;;;;;;;15.65;4.28;;;;;;;14.42;72.73;100766.59;5023408;28;20366;-67
2022/09/21 10:55:32;;;;;;;10.35;3.92;;;;;;;14.42;73.24;100768.34;5018415;28;20553;-69
2022/09/21 10:58:01;;;;;;;5.40;3.42;;;;;;;14.40;72.48;100768.31;5020666;28;20554;-69
2022/09/21 11:00:41;;;;;;;7.00;4.47;;;;;;;14.39;73.40;100765.69;5018226;28;20046;-68
2022/09/21 11:03:41;;;;;;;9.70;4.60;;;;;;;14.32;73.92;100764.72;5021379;28;20065;-69
2022/09/21 11:06:15;;;;;;;9.57;3.58;;;;;;;14.31;73.30;100756.91;5023273;28;20503;-68
2022/09/21 11:08:51;;;;;;;8.73;4.03;;;;;;;14.31;72.59;100751.69;5020092;28;20127;-68
2022/09/21 11:11:36;;;;;;;8.80;4.25;;;;;;;14.30;73.63;100750.81;5019447;28;20052;-68
2022/09/21 11:14:15;;;;;;;14.68;4.82;;;;;;;14.30;73.91;100750.81;5021283;28;20539;-69
2022/09/21 11:16:50;;;;;;;8.20;3.88;;;;;;;14.30;73.15;100755.16;5021497;28;20687;-69
2022/09/21 11:19:29;;;;;;;11.15;4.43;;;;;;;14.30;73.69;100752.56;5020184;28;20042;-68
2022/09/21 11:22:02;;;;;;;12.95;4.63;;;;;;;14.28;73.90;100749.91;5023214;28;20569;-68
2022/09/21 11:24:38;;;;;;;8.43;4.25;;;;;;;14.26;73.04;100751.63;5018250;28;20049;-70
2022/09/21 11:27:13;;;;;;;9.20;4.88;;;;;;;14.23;73.24;100749.00;5013337;28;20172;-68
2022/09/21 11:29:54;;;;;;;9.98;4.47;;;;;;;14.21;74.41;100745.50;5015639;28;20048;-68
2022/09/21 11:32:46;;;;;;;12.18;4.63;;;;;;;14.19;74.21;100744.59;5020210;28;20085;-68
2022/09/21 11:35:36;;;;;;;9.60;4.28;;;;;;;14.15;74.44;100750.59;5022298;28;20573;-67
2022/09/21 11:38:13;;;;;;;9.77;5.03;;;;;;;14.11;74.68;100751.38;5018096;28;20064;-68
2022/09/21 11:41:23;;;;;;;11.85;5.32;;;;;;;14.10;74.58;100749.66;5016780;28;20049;-68
2022/09/21 11:44:09;;;;;;;14.70;4.32;;;;;;;14.07;73.80;100753.09;5007911;28;20080;-68
2022/09/21 11:46:46;;;;;;;11.13;4.80;;;;;;;14.06;74.73;100745.25;5023551;28;20069;-68
2022/09/21 11:49:44;;;;;;;10.70;4.75;;;;;;;14.03;75.05;100752.16;5025568;28;20094;-68
2022/09/21 11:52:31;;;;;;;9.50;5.22;;;;;;;14.01;73.82;100739.97;5021619;28;20120;-68
2022/09/21 11:55:13;;;;;;;7.63;4.18;;;;;;;13.91;76.73;100754.56;5022860;28;20045;-67
2022/09/21 11:57:50;;;;;;;13.35;4.88;;;;;;;13.83;76.47;100743.16;5023408;28;20640;-68